Terminal Aerodrome Forecast
Issued by NWS

Home | Current Version | Previous Version | Text Only | Print | Product List | Glossary On
Versions: 1 2 3 4 5 6 7 8 9 10 11 12
000
FTUS45 KRIW 282300
TAFCPR
TAF
KCPR 282324Z 2900/2924 09010G15KT P6SM FEW080 SCT150
     FM290900 09007KT P6SM VCSH SCT080 OVC120
     FM291300 03011KT P6SM VCSH SCT040 OVC100
     FM291900 06011G18KT P6SM VCTS SCT050CB BKN070=

USA.gov is the U.S. government's official web portal to all federal, state and local government web resources and services.